Time;durP1;ratioP1;P1;durP2;ratioP2;P2;SDS_P1;SDS_P2;PMS_P1;PMS_P2;Temp;Humidity;BMP_temperature;BMP_pressure;BME280_temperature;BME280_humidity;BME280_pressure;Samples;Min_cycle;Max_cycle;Signal;HPM_P1;HPM_P2
2023/06/28 00:02:10;;;;;;;13.80;6.55;;;;;;;;;;6245290;28;20369;-73
2023/06/28 00:05:12;;;;;;;10.15;6.80;;;;;;;;;;6242512;28;20049;-74
2023/06/28 00:08:15;;;;;;;11.85;7.15;;;;;;;;;;6242498;28;20538;-74
2023/06/28 00:11:16;;;;;;;11.65;7.07;;;;;;;;;;6241665;28;20065;-72
2023/06/28 00:14:18;;;;;;;9.50;6.70;;;;;;;;;;6244880;28;20092;-71
2023/06/28 00:17:19;;;;;;;12.52;7.28;;;;;;;;;;6244799;28;20045;-72
2023/06/28 00:20:20;;;;;;;12.55;6.65;;;;;;;;;;6243723;28;20048;-72
2023/06/28 00:23:23;;;;;;;12.35;7.00;;;;;;;;;;6243791;28;20062;-74
2023/06/28 00:26:26;;;;;;;10.85;6.60;;;;;;;;;;6242064;28;20060;-74
2023/06/28 00:29:28;;;;;;;11.05;7.20;;;;;;;;;;6241058;28;20057;-74
2023/06/28 00:32:29;;;;;;;12.90;7.03;;;;;;;;;;6240322;28;20057;-73
2023/06/28 00:35:30;;;;;;;10.77;6.80;;;;;;;;;;6238057;28;20076;-73
2023/06/28 00:38:34;;;;;;;10.32;7.20;;;;;;;;;;6241093;28;20108;-73
2023/06/28 00:41:36;;;;;;;8.07;6.40;;;;;;;;;;6245996;28;20164;-73
2023/06/28 00:44:37;;;;;;;9.50;7.13;;;;;;;;;;6246027;28;20377;-73
2023/06/28 00:47:39;;;;;;;9.80;6.95;;;;;;;;;;6240941;28;20105;-73
2023/06/28 00:50:40;;;;;;;9.15;6.90;;;;;;;;;;6243481;28;20119;-73
2023/06/28 00:53:43;;;;;;;10.43;7.32;;;;;;;;;;6239600;28;20065;-73
2023/06/28 00:56:45;;;;;;;9.68;6.80;;;;;;;;;;6239299;28;20051;-73
2023/06/28 00:59:47;;;;;;;11.75;6.82;;;;;;;;;;6241171;28;20281;-73
2023/06/28 01:02:49;;;;;;;8.63;7.25;;;;;;;;;;6240722;28;20054;-73
2023/06/28 01:05:52;;;;;;;10.63;7.20;;;;;;;;;;6244368;28;20068;-73
2023/06/28 01:08:55;;;;;;;9.77;6.68;;;;;;;;;;6243018;28;20706;-74
2023/06/28 01:12:00;;;;;;;8.20;6.22;;;;;;;;;;6242980;28;20092;-73
2023/06/28 01:15:02;;;;;;;9.55;6.85;;;;;;;;;;6240591;28;20049;-73
2023/06/28 01:18:05;;;;;;;10.02;7.43;;;;;;;;;;6241711;28;20076;-74
2023/06/28 01:21:08;;;;;;;11.82;7.35;;;;;;;;;;6239858;28;20065;-73
2023/06/28 01:24:10;;;;;;;13.82;7.22;;;;;;;;;;6241181;28;20058;-73
2023/06/28 01:27:13;;;;;;;12.98;7.10;;;;;;;;;;6242825;28;20045;-73
2023/06/28 01:30:15;;;;;;;9.43;7.35;;;;;;;;;;6241024;28;20061;-74
2023/06/28 01:33:17;;;;;;;10.98;7.50;;;;;;;;;;6241626;28;20045;-73
2023/06/28 01:36:18;;;;;;;9.15;6.80;;;;;;;;;;6238350;28;20045;-73
2023/06/28 01:39:22;;;;;;;9.38;7.13;;;;;;;;;;6244674;28;20054;-73
2023/06/28 01:42:23;;;;;;;;;;;;;;;;;;6240858;28;20077;-73
2023/06/28 01:45:24;;;;;;;8.98;7.07;;;;;;;;;;6240480;28;19925;-73
2023/06/28 01:48:26;;;;;;;12.38;6.82;;;;;;;;;;6241866;28;20384;-72
2023/06/28 01:51:28;;;;;;;8.80;6.97;;;;;;;;;;6240183;28;20361;-72
2023/06/28 01:54:32;;;;;;;10.60;7.70;;;;;;;;;;6240803;28;20058;-73
2023/06/28 01:57:33;;;;;;;9.18;6.28;;;;;;;;;;6241984;28;20401;-73
2023/06/28 02:00:35;;;;;;;10.80;7.07;;;;;;;;;;6242307;28;20333;-75
2023/06/28 02:03:36;;;;;;;9.50;7.35;;;;;;;;;;6241855;28;20124;-73
2023/06/28 02:06:39;;;;;;;11.68;7.00;;;;;;;;;;6241438;28;20095;-73
2023/06/28 02:09:42;;;;;;;10.10;7.07;;;;;;;;;;6243329;28;20573;-73
2023/06/28 02:12:43;;;;;;;12.38;7.80;;;;;;;;;;6245821;28;20045;-74
2023/06/28 02:15:45;;;;;;;10.98;7.15;;;;;;;;;;6245875;28;20053;-73
2023/06/28 02:18:46;;;;;;;10.20;7.03;;;;;;;;;;6241656;28;20716;-73
2023/06/28 02:21:48;;;;;;;9.23;6.88;;;;;;;;;;6243898;28;20053;-73
2023/06/28 02:24:50;;;;;;;9.32;6.97;;;;;;;;;;6247843;28;20054;-73
2023/06/28 02:27:52;;;;;;;8.18;6.63;;;;;;;;;;6244109;28;20819;-73
2023/06/28 02:30:53;;;;;;;9.23;6.80;;;;;;;;;;6242371;28;20046;-73
2023/06/28 02:33:55;;;;;;;9.50;6.80;;;;;;;;;;6246293;28;20084;-73
2023/06/28 02:36:56;;;;;;;9.00;6.57;;;;;;;;;;6244753;28;20297;-74
2023/06/28 02:39:59;;;;;;;9.75;6.53;;;;;;;;;;6243807;28;20057;-74
2023/06/28 02:43:01;;;;;;;9.82;6.95;;;;;;;;;;6244199;28;20057;-73
2023/06/28 02:46:02;;;;;;;9.85;6.60;;;;;;;;;;6245275;28;20486;-74
2023/06/28 02:49:04;;;;;;;7.90;6.20;;;;;;;;;;6242246;28;20317;-73
2023/06/28 02:52:06;;;;;;;8.27;6.43;;;;;;;;;;6240127;28;20046;-73
2023/06/28 02:55:09;;;;;;;8.40;6.32;;;;;;;;;;6242275;28;20057;-73
2023/06/28 02:58:10;;;;;;;9.35;6.57;;;;;;;;;;6240901;28;20061;-74
2023/06/28 03:01:12;;;;;;;7.85;6.43;;;;;;;;;;6242594;28;20049;-75
2023/06/28 03:04:13;;;;;;;9.40;6.22;;;;;;;;;;6243136;28;20261;-73
2023/06/28 03:07:15;;;;;;;7.85;6.47;;;;;;;;;;6241715;28;20091;-73
2023/06/28 03:10:18;;;;;;;9.80;6.75;;;;;;;;;;6241368;28;20278;-76
2023/06/28 03:13:20;;;;;;;10.13;6.82;;;;;;;;;;6241529;28;20056;-73
2023/06/28 03:16:22;;;;;;;8.85;6.40;;;;;;;;;;6241999;28;20049;-73
2023/06/28 03:19:24;;;;;;;8.20;6.13;;;;;;;;;;6242130;28;20045;-73
2023/06/28 03:22:25;;;;;;;7.50;5.68;;;;;;;;;;6241157;28;20157;-73
2023/06/28 03:25:28;;;;;;;6.25;5.45;;;;;;;;;;6241089;28;20285;-73
2023/06/28 03:28:29;;;;;;;9.80;6.25;;;;;;;;;;6242340;28;20139;-73
2023/06/28 03:31:32;;;;;;;7.05;5.72;;;;;;;;;;6239735;28;20314;-74
2023/06/28 03:34:33;;;;;;;11.10;6.70;;;;;;;;;;6242486;28;20048;-75
2023/06/28 03:37:35;;;;;;;9.70;6.20;;;;;;;;;;6243003;28;20065;-73
2023/06/28 03:40:38;;;;;;;8.90;6.18;;;;;;;;;;6244614;28;20057;-73
2023/06/28 03:43:39;;;;;;;8.90;6.63;;;;;;;;;;6242389;28;20064;-73
2023/06/28 03:46:41;;;;;;;9.05;5.80;;;;;;;;;;6247585;28;20061;-74
2023/06/28 03:49:42;;;;;;;11.57;6.38;;;;;;;;;;6244409;28;20053;-73
2023/06/28 03:52:44;;;;;;;8.27;5.65;;;;;;;;;;6242895;28;20045;-73
2023/06/28 03:55:46;;;;;;;8.48;6.15;;;;;;;;;;6242601;28;20050;-74
2023/06/28 03:58:49;;;;;;;9.40;5.97;;;;;;;;;;6245899;28;20041;-73
2023/06/28 04:01:51;;;;;;;9.70;5.88;;;;;;;;;;6242955;28;20136;-73
2023/06/28 04:04:52;;;;;;;8.60;5.85;;;;;;;;;;6239710;28;20053;-75
2023/06/28 04:07:57;;;;;;;7.60;5.70;;;;;;;;;;6240017;28;21067;-73
2023/06/28 04:11:00;;;;;;;9.20;5.57;;;;;;;;;;6241998;28;20095;-73
2023/06/28 04:14:02;;;;;;;7.13;5.63;;;;;;;;;;6241374;28;20045;-74
2023/06/28 04:17:03;;;;;;;9.13;6.60;;;;;;;;;;6243578;28;20266;-74
2023/06/28 04:20:07;;;;;;;11.02;6.13;;;;;;;;;;6240127;28;20081;-73
2023/06/28 04:23:08;;;;;;;;;;;;;;;;;;6240308;28;20341;-73
2023/06/28 04:26:11;;;;;;;11.77;6.78;;;;;;;;;;6241538;28;20020;-74
2023/06/28 04:29:13;;;;;;;10.35;6.00;;;;;;;;;;6243694;28;20287;-73
2023/06/28 04:32:21;;;;;;;10.68;6.50;;;;;;;;;;6243061;28;20064;-73
2023/06/28 04:35:23;;;;;;;7.10;5.35;;;;;;;;;;6244412;28;20053;-74
2023/06/28 04:38:24;;;;;;;18.05;5.82;;;;;;;;;;6240865;28;20317;-73
2023/06/28 04:41:27;;;;;;;8.48;5.63;;;;;;;;;;6241440;28;20053;-73
2023/06/28 04:44:36;;;;;;;6.47;5.10;;;;;;;;;;6241926;28;20057;-73
2023/06/28 04:47:39;;;;;;;6.57;4.82;;;;;;;;;;6242814;28;20057;-73
2023/06/28 04:50:40;;;;;;;7.32;5.15;;;;;;;;;;6240252;28;20387;-73
2023/06/28 04:53:41;;;;;;;8.07;5.00;;;;;;;;;;6241634;28;20131;-74
2023/06/28 04:56:45;;;;;;;7.25;4.43;;;;;;;;;;6241129;28;20242;-74
2023/06/28 04:59:46;;;;;;;6.07;4.25;;;;;;;;;;6240176;28;20121;-74
2023/06/28 05:02:50;;;;;;;7.18;4.72;;;;;;;;;;6242118;28;20061;-74
2023/06/28 05:05:51;;;;;;;;;;;;;;;;;;6240673;28;20077;-76
2023/06/28 05:08:52;;;;;;;6.32;4.40;;;;;;;;;;6239443;28;19940;-73
2023/06/28 05:11:55;;;;;;;5.60;3.95;;;;;;;;;;6242165;28;20046;-74
2023/06/28 05:14:57;;;;;;;5.78;4.10;;;;;;;;;;6241581;28;20057;-73
2023/06/28 05:17:58;;;;;;;7.03;4.43;;;;;;;;;;6240907;28;20069;-74
2023/06/28 05:21:00;;;;;;;4.80;3.95;;;;;;;;;;6240026;28;20166;-74
2023/06/28 05:24:01;;;;;;;6.72;4.40;;;;;;;;;;6241047;28;20887;-74
2023/06/28 05:27:04;;;;;;;7.80;4.05;;;;;;;;;;6242472;28;20061;-74
2023/06/28 05:30:07;;;;;;;5.03;4.05;;;;;;;;;;6236573;28;20056;-74
2023/06/28 05:33:08;;;;;;;6.80;3.85;;;;;;;;;;6238583;28;20052;-74
2023/06/28 05:36:10;;;;;;;7.00;4.10;;;;;;;;;;6238928;28;20245;-75
2023/06/28 05:39:11;;;;;;;5.45;4.10;;;;;;;;;;6238855;28;20368;-74
2023/06/28 05:42:14;;;;;;;7.28;3.90;;;;;;;;;;6244252;28;20046;-73
2023/06/28 05:45:16;;;;;;;7.03;3.97;;;;;;;;;;6249748;28;20057;-74
2023/06/28 05:48:17;;;;;;;7.03;4.35;;;;;;;;;;6245172;28;20064;-73
2023/06/28 05:51:18;;;;;;;5.40;3.78;;;;;;;;;;6244423;28;20060;-75
2023/06/28 05:54:20;;;;;;;10.30;3.90;;;;;;;;;;6243144;28;20053;-75
2023/06/28 05:57:23;;;;;;;5.15;3.83;;;;;;;;;;6243085;28;20509;-74
2023/06/28 06:00:24;;;;;;;7.28;3.50;;;;;;;;;;6245036;28;20053;-76
2023/06/28 06:03:25;;;;;;;6.78;3.40;;;;;;;;;;6245811;28;20107;-73
2023/06/28 06:06:27;;;;;;;6.35;3.63;;;;;;;;;;6242780;28;20056;-73
2023/06/28 06:09:30;;;;;;;6.35;3.88;;;;;;;;;;6245936;28;20089;-74
2023/06/28 06:12:33;;;;;;;7.30;3.78;;;;;;;;;;6242193;28;20294;-73
2023/06/28 06:15:34;;;;;;;5.22;3.80;;;;;;;;;;6244597;28;20064;-73
2023/06/28 06:18:39;;;;;;;6.45;3.90;;;;;;;;;;6245579;28;20367;-74
2023/06/28 06:21:41;;;;;;;5.03;3.20;;;;;;;;;;6247791;28;20104;-73
2023/06/28 06:24:43;;;;;;;6.15;3.65;;;;;;;;;;6241562;28;20060;-73
2023/06/28 06:27:46;;;;;;;5.03;3.40;;;;;;;;;;6245151;28;20052;-74
2023/06/28 06:30:47;;;;;;;6.00;3.63;;;;;;;;;;6246466;28;20060;-74
2023/06/28 06:33:49;;;;;;;6.47;3.28;;;;;;;;;;6245017;28;20045;-74
2023/06/28 06:36:51;;;;;;;9.55;3.38;;;;;;;;;;6245628;28;20060;-74
2023/06/28 06:39:53;;;;;;;7.85;3.50;;;;;;;;;;6242181;28;20048;-77
2023/06/28 06:42:56;;;;;;;5.67;3.40;;;;;;;;;;6244760;28;20065;-74
2023/06/28 06:45:57;;;;;;;4.35;3.60;;;;;;;;;;6243338;28;20595;-74
2023/06/28 06:48:59;;;;;;;5.78;3.38;;;;;;;;;;6244189;28;20081;-74
2023/06/28 06:52:00;;;;;;;5.35;3.53;;;;;;;;;;6243577;28;20345;-74
2023/06/28 06:55:02;;;;;;;6.50;3.22;;;;;;;;;;6244950;28;20054;-74
2023/06/28 06:58:05;;;;;;;6.10;2.95;;;;;;;;;;6244436;28;20049;-74
2023/06/28 07:01:06;;;;;;;7.07;3.90;;;;;;;;;;6243883;28;20062;-73
2023/06/28 07:04:07;;;;;;;4.32;3.47;;;;;;;;;;6242187;28;20068;-73
2023/06/28 07:07:09;;;;;;;4.57;3.38;;;;;;;;;;6238453;28;20380;-73
2023/06/28 07:10:10;;;;;;;7.00;3.97;;;;;;;;;;6241264;28;20059;-74
2023/06/28 07:13:14;;;;;;;6.03;4.57;;;;;;;;;;6243212;28;20280;-74
2023/06/28 07:16:16;;;;;;;8.00;4.32;;;;;;;;;;6247905;28;20088;-73
2023/06/28 07:19:18;;;;;;;6.78;4.18;;;;;;;;;;6246690;28;20049;-74
2023/06/28 07:22:20;;;;;;;6.18;3.45;;;;;;;;;;6245335;28;20239;-74
2023/06/28 07:25:21;;;;;;;6.15;4.40;;;;;;;;;;6246789;28;20065;-74
2023/06/28 07:28:24;;;;;;;7.78;4.10;;;;;;;;;;6246696;28;20061;-74
2023/06/28 07:31:25;;;;;;;6.95;4.63;;;;;;;;;;6245566;28;20235;-73
2023/06/28 07:34:27;;;;;;;4.72;3.83;;;;;;;;;;6245420;28;20057;-73
2023/06/28 07:37:30;;;;;;;7.30;4.03;;;;;;;;;;6246441;28;20215;-75
2023/06/28 07:40:32;;;;;;;6.05;4.57;;;;;;;;;;6244607;28;20229;-74
2023/06/28 07:43:34;;;;;;;8.05;3.85;;;;;;;;;;6247758;28;20096;-75
2023/06/28 07:46:36;;;;;;;7.13;4.93;;;;;;;;;;6246192;28;20063;-75
2023/06/28 07:49:38;;;;;;;6.30;3.95;;;;;;;;;;6241856;28;20053;-74
2023/06/28 07:52:39;;;;;;;5.85;4.90;;;;;;;;;;6241608;28;20314;-75
2023/06/28 07:55:41;;;;;;;7.57;4.50;;;;;;;;;;6240372;28;20053;-75
2023/06/28 07:58:44;;;;;;;7.63;4.55;;;;;;;;;;6241694;28;20053;-74
2023/06/28 08:01:45;;;;;;;6.28;4.75;;;;;;;;;;6239309;28;20053;-72
2023/06/28 08:04:46;;;;;;;8.43;4.95;;;;;;;;;;6243051;28;20064;-73
2023/06/28 08:07:48;;;;;;;6.72;4.22;;;;;;;;;;6241441;28;20064;-74
2023/06/28 08:10:50;;;;;;;6.40;4.00;;;;;;;;;;6239731;28;20072;-74
2023/06/28 08:13:53;;;;;;;6.57;4.10;;;;;;;;;;6243284;28;20054;-73
2023/06/28 08:16:54;;;;;;;6.25;3.63;;;;;;;;;;6243203;28;20109;-73
2023/06/28 08:19:56;;;;;;;8.02;4.15;;;;;;;;;;6244390;28;20065;-74
2023/06/28 08:22:57;;;;;;;6.05;4.25;;;;;;;;;;6242265;28;20217;-75
2023/06/28 08:25:59;;;;;;;5.40;3.92;;;;;;;;;;6243970;28;20057;-74
2023/06/28 08:29:02;;;;;;;7.53;4.95;;;;;;;;;;6242162;28;20413;-74
2023/06/28 08:32:03;;;;;;;9.95;4.88;;;;;;;;;;6239849;28;20046;-75
2023/06/28 08:35:05;;;;;;;7.78;4.40;;;;;;;;;;6244668;28;20061;-78
2023/06/28 08:38:09;;;;;;;6.35;4.30;;;;;;;;;;6246140;28;20053;-77
2023/06/28 08:41:11;;;;;;;8.07;4.82;;;;;;;;;;6243083;28;20128;-79
2023/06/28 08:44:14;;;;;;;36.53;26.73;;;;;;;;;;6240075;28;20052;-77
2023/06/28 08:47:16;;;;;;;18.25;11.77;;;;;;;;;;6239907;28;20064;-78
2023/06/28 08:50:18;;;;;;;7.97;5.28;;;;;;;;;;6240499;28;20084;-75
2023/06/28 08:53:23;;;;;;;8.77;6.13;;;;;;;;;;6243391;28;20351;-75
2023/06/28 08:56:25;;;;;;;5.78;4.50;;;;;;;;;;6242546;28;20049;-74
2023/06/28 08:59:28;;;;;;;9.63;4.95;;;;;;;;;;6243682;28;20357;-74
2023/06/28 09:02:32;;;;;;;6.90;5.22;;;;;;;;;;6240230;28;20054;-74
2023/06/28 09:05:33;;;;;;;7.18;4.43;;;;;;;;;;6240239;28;20053;-75
2023/06/28 09:08:35;;;;;;;7.57;4.82;;;;;;;;;;6242305;28;20065;-74
2023/06/28 09:11:37;;;;;;;6.65;5.13;;;;;;;;;;6242018;28;20050;-74
2023/06/28 09:14:40;;;;;;;7.45;4.88;;;;;;;;;;6245163;28;20060;-74
2023/06/28 09:17:41;;;;;;;;;;;;;;;;;;6249528;28;20057;-74
2023/06/28 09:20:48;;;;;;;7.70;4.15;;;;;;;;;;6247445;28;19925;-74
2023/06/28 09:23:50;;;;;;;6.13;4.72;;;;;;;;;;6248373;28;20058;-75
2023/06/28 09:26:51;;;;;;;5.63;4.63;;;;;;;;;;6247678;28;20939;-74
2023/06/28 09:30:00;;;;;;;8.88;4.65;;;;;;;;;;6247329;28;20917;-74
2023/06/28 09:33:04;;;;;;;6.90;4.70;;;;;;;;;;6245715;28;20280;-74
2023/06/28 09:36:05;;;;;;;9.25;5.15;;;;;;;;;;6247029;28;20060;-75
2023/06/28 09:39:08;;;;;;;6.65;4.97;;;;;;;;;;6245959;28;20341;-74
2023/06/28 09:42:10;;;;;;;13.20;5.18;;;;;;;;;;6249502;28;20201;-76
2023/06/28 09:45:23;;;;;;;6.43;4.47;;;;;;;;;;6248459;28;20249;-74
2023/06/28 09:48:25;;;;;;;;;;;;;;;;;;6244418;28;20257;-74
2023/06/28 09:51:27;;;;;;;10.90;5.13;;;;;;;;;;6244869;28;19980;-74
2023/06/28 09:54:31;;;;;;;6.28;5.05;;;;;;;;;;6245377;28;20045;-74
2023/06/28 09:57:33;;;;;;;8.70;5.15;;;;;;;;;;6244487;28;20391;-74
2023/06/28 10:00:37;;;;;;;12.18;5.05;;;;;;;;;;6249257;28;20321;-75
2023/06/28 10:03:39;;;;;;;9.65;5.95;;;;;;;;;;6246608;28;20056;-75
2023/06/28 10:06:41;;;;;;;6.07;4.55;;;;;;;;;;6246412;28;20058;-75
2023/06/28 10:09:43;;;;;;;9.98;5.72;;;;;;;;;;6242903;28;20099;-75
2023/06/28 10:12:45;;;;;;;8.13;5.10;;;;;;;;;;6245583;28;20444;-76
2023/06/28 10:15:47;;;;;;;;;;;;;;;;;;6251176;28;20057;-75
2023/06/28 10:18:50;;;;;;;6.32;5.00;;;;;;;;;;6245884;28;20224;-75
2023/06/28 10:21:51;;;;;;;7.47;5.50;;;;;;;;;;6243070;28;20073;-75
2023/06/28 10:24:53;;;;;;;6.03;5.43;;;;;;;;;;6245764;28;20046;-75
2023/06/28 10:27:55;;;;;;;6.63;5.15;;;;;;;;;;6245955;28;20888;-75
2023/06/28 10:30:56;;;;;;;5.68;4.85;;;;;;;;;;6243121;28;20057;-75
2023/06/28 10:33:59;;;;;;;6.27;4.87;;;;;;;;;;6242295;28;20273;-75
2023/06/28 10:37:01;;;;;;;6.95;5.22;;;;;;;;;;6245739;28;20054;-76
2023/06/28 10:40:05;;;;;;;8.23;5.60;;;;;;;;;;6240716;28;20050;-75
2023/06/28 10:43:06;;;;;;;6.75;5.28;;;;;;;;;;6243509;28;20064;-75
2023/06/28 10:46:21;;;;;;;7.70;5.07;;;;;;;;;;6240579;28;20365;-76
2023/06/28 10:49:24;;;;;;;9.85;5.60;;;;;;;;;;6244045;28;20041;-75
2023/06/28 10:52:28;;;;;;;6.20;4.85;;;;;;;;;;6241116;28;20045;-75
2023/06/28 10:55:30;;;;;;;7.18;5.43;;;;;;;;;;6247231;28;20100;-76
2023/06/28 10:58:36;;;;;;;5.95;4.47;;;;;;;;;;6244471;28;20057;-75
2023/06/28 11:01:40;;;;;;;7.93;5.05;;;;;;;;;;6243405;28;20112;-75
2023/06/28 11:04:52;;;;;;;8.38;4.40;;;;;;;;;;6241889;28;20061;-75
2023/06/28 11:07:53;;;;;;;9.97;4.93;;;;;;;;;;6243728;28;20041;-74
2023/06/28 11:10:55;;;;;;;8.20;4.65;;;;;;;;;;6244250;28;20124;-75
2023/06/28 11:13:57;;;;;;;8.63;4.90;;;;;;;;;;6241019;28;20058;-75
2023/06/28 11:17:00;;;;;;;7.32;4.60;;;;;;;;;;6241008;28;20052;-74
2023/06/28 11:20:10;;;;;;;5.35;4.10;;;;;;;;;;6241876;28;20099;-77
2023/06/28 11:23:23;;;;;;;6.85;4.93;;;;;;;;;;6241255;28;20136;-75
2023/06/28 11:26:42;;;;;;;5.00;4.40;;;;;;;;;;6243677;28;20054;-75
2023/06/28 11:29:54;;;;;;;5.50;4.40;;;;;;;;;;6243104;28;20050;-77
2023/06/28 11:32:55;;;;;;;5.35;4.47;;;;;;;;;;6244132;28;20114;-75
2023/06/28 11:35:58;;;;;;;6.93;4.28;;;;;;;;;;6243621;28;20333;-76
2023/06/28 11:39:00;;;;;;;5.07;3.97;;;;;;;;;;6242374;28;20065;-75
2023/06/28 11:42:03;;;;;;;6.72;5.30;;;;;;;;;;6244299;28;20058;-75
2023/06/28 11:45:06;;;;;;;9.00;5.18;;;;;;;;;;6243703;28;20115;-75
2023/06/28 11:48:10;;;;;;;6.30;4.60;;;;;;;;;;6239887;28;20055;-76
2023/06/28 11:51:13;;;;;;;4.90;4.50;;;;;;;;;;6242687;28;20124;-75
2023/06/28 11:54:16;;;;;;;5.88;4.20;;;;;;;;;;6241202;28;20109;-76
2023/06/28 11:57:18;;;;;;;9.63;4.78;;;;;;;;;;6239874;28;20353;-75
2023/06/28 12:00:20;;;;;;;4.57;4.15;;;;;;;;;;6242362;28;20045;-75
2023/06/28 12:03:29;;;;;;;6.07;4.30;;;;;;;;;;6243907;28;20058;-77
2023/06/28 12:06:32;;;;;;;5.80;4.05;;;;;;;;;;6239642;28;20049;-76
2023/06/28 12:09:35;;;;;;;7.60;4.80;;;;;;;;;;6240117;28;20049;-77
2023/06/28 12:12:38;;;;;;;4.93;4.53;;;;;;;;;;6238515;28;20076;-75
2023/06/28 12:15:39;;;;;;;6.05;3.92;;;;;;;;;;6238673;28;20072;-76
2023/06/28 12:18:57;;;;;;;5.55;4.10;;;;;;;;;;6242295;28;20342;-77
2023/06/28 12:22:02;;;;;;;5.55;3.60;;;;;;;;;;6240333;28;20045;-75
2023/06/28 12:25:03;;;;;;;5.35;3.63;;;;;;;;;;6244415;28;20058;-75
2023/06/28 12:28:05;;;;;;;4.28;3.75;;;;;;;;;;6243479;28;20049;-75
2023/06/28 12:31:09;;;;;;;4.53;3.78;;;;;;;;;;6240482;28;20338;-75
2023/06/28 12:34:11;;;;;;;5.97;3.92;;;;;;;;;;6238148;28;20045;-75
2023/06/28 12:37:14;;;;;;;5.55;3.70;;;;;;;;;;6239857;28;20049;-75
2023/06/28 12:40:15;;;;;;;5.35;4.00;;;;;;;;;;6239991;28;20041;-74
2023/06/28 12:43:18;;;;;;;7.82;3.50;;;;;;;;;;6238407;28;20061;-76
2023/06/28 12:46:19;;;;;;;7.15;3.75;;;;;;;;;;6238182;28;20117;-75
2023/06/28 12:49:21;;;;;;;4.35;3.95;;;;;;;;;;6241117;28;20132;-75
2023/06/28 12:52:24;;;;;;;4.43;3.80;;;;;;;;;;6239323;28;20055;-80
2023/06/28 12:55:26;;;;;;;4.10;3.55;;;;;;;;;;6241231;28;20065;-79
2023/06/28 12:58:27;;;;;;;5.30;3.65;;;;;;;;;;6241011;28;20060;-80
2023/06/28 13:01:29;;;;;;;4.93;3.92;;;;;;;;;;6243983;28;20054;-80
2023/06/28 13:04:32;;;;;;;4.63;3.90;;;;;;;;;;6237198;28;20057;-81
2023/06/28 13:07:36;;;;;;;4.95;3.58;;;;;;;;;;6241339;28;20049;-80
2023/06/28 13:10:38;;;;;;;7.72;3.78;;;;;;;;;;6241546;28;20189;-80
2023/06/28 13:13:39;;;;;;;5.07;3.85;;;;;;;;;;6240035;28;20096;-80
2023/06/28 13:16:40;;;;;;;;;;;;;;;;;;6240158;28;20341;-79
2023/06/28 13:19:42;;;;;;;7.73;3.80;;;;;;;;;;6241557;28;19925;-79
2023/06/28 13:22:45;;;;;;;4.80;3.75;;;;;;;;;;6244148;28;20465;-79
2023/06/28 13:25:47;;;;;;;5.22;3.72;;;;;;;;;;6239319;28;20045;-80
2023/06/28 13:28:49;;;;;;;5.63;3.70;;;;;;;;;;6243337;28;20104;-81
2023/06/28 13:31:50;;;;;;;5.00;4.03;;;;;;;;;;6241871;28;20061;-81
2023/06/28 13:34:52;;;;;;;5.53;4.20;;;;;;;;;;6238749;28;20819;-79
2023/06/28 13:37:55;;;;;;;4.72;4.03;;;;;;;;;;6238649;28;20106;-80
2023/06/28 13:40:56;;;;;;;5.55;3.60;;;;;;;;;;6239320;28;20060;-81
2023/06/28 13:43:58;;;;;;;5.32;3.70;;;;;;;;;;6239976;28;20060;-79
2023/06/28 13:46:59;;;;;;;5.47;3.75;;;;;;;;;;6239498;28;20054;-79
2023/06/28 13:50:01;;;;;;;6.13;3.78;;;;;;;;;;6241170;28;20066;-81
2023/06/28 13:53:03;;;;;;;;;;;;;;;;;;6240416;28;20866;-79
2023/06/28 13:56:06;;;;;;;6.78;4.15;;;;;;;;;;6238373;28;20223;-79
2023/06/28 13:59:08;;;;;;;6.63;3.92;;;;;;;;;;6238974;28;20642;-79
2023/06/28 14:02:09;;;;;;;5.80;4.00;;;;;;;;;;6239266;28;20125;-79
2023/06/28 14:05:11;;;;;;;6.68;4.15;;;;;;;;;;6243408;28;20356;-78
2023/06/28 14:08:12;;;;;;;5.78;4.05;;;;;;;;;;6242975;28;20061;-79
2023/06/28 14:11:15;;;;;;;6.80;4.25;;;;;;;;;;6242089;28;20066;-79
2023/06/28 14:14:17;;;;;;;6.55;3.90;;;;;;;;;;6245497;28;20049;-77
2023/06/28 14:17:18;;;;;;;5.03;4.22;;;;;;;;;;6243080;28;20068;-83
2023/06/28 14:20:20;;;;;;;5.85;4.28;;;;;;;;;;6247782;28;20241;-79
2023/06/28 14:23:21;;;;;;;8.88;3.92;;;;;;;;;;6246899;28;20457;-79
2023/06/28 14:26:24;;;;;;;9.07;4.47;;;;;;;;;;6240015;28;20061;-78
2023/06/28 14:29:26;;;;;;;40.05;29.70;;;;;;;;;;6251067;28;20372;-76
2023/06/28 14:32:27;;;;;;;10.80;8.27;;;;;;;;;;6245017;28;20053;-76
2023/06/28 14:35:29;;;;;;;16.27;10.93;;;;;;;;;;6245056;28;20060;-76
2023/06/28 14:38:30;;;;;;;45.97;36.20;;;;;;;;;;6248199;28;20053;-76
2023/06/28 14:41:33;;;;;;;16.27;12.93;;;;;;;;;;6247144;28;20053;-76
2023/06/28 14:44:34;;;;;;;33.20;24.08;;;;;;;;;;6244547;28;20045;-76
2023/06/28 14:47:36;;;;;;;43.93;36.17;;;;;;;;;;6249116;28;20065;-76
2023/06/28 14:50:37;;;;;;;6.43;4.60;;;;;;;;;;6244269;28;20499;-77
2023/06/28 14:53:39;;;;;;;5.57;4.00;;;;;;;;;;6243274;28;20053;-76
2023/06/28 14:56:42;;;;;;;6.67;4.70;;;;;;;;;;6245750;28;20050;-77
2023/06/28 14:59:43;;;;;;;7.13;4.68;;;;;;;;;;6244935;28;20121;-76
2023/06/28 15:02:45;;;;;;;9.88;4.47;;;;;;;;;;6244165;28;20096;-77
2023/06/28 15:05:46;;;;;;;8.93;4.72;;;;;;;;;;6242922;28;20054;-77
2023/06/28 15:08:48;;;;;;;6.30;4.90;;;;;;;;;;6243341;28;20121;-77
2023/06/28 15:11:51;;;;;;;7.60;4.93;;;;;;;;;;6243819;28;20211;-77
2023/06/28 15:14:52;;;;;;;6.45;4.70;;;;;;;;;;6242930;28;20042;-79
2023/06/28 15:17:54;;;;;;;5.72;4.75;;;;;;;;;;6243013;28;20058;-77
2023/06/28 15:20:56;;;;;;;8.93;4.93;;;;;;;;;;6246025;28;20057;-78
2023/06/28 15:23:57;;;;;;;8.65;5.20;;;;;;;;;;6242271;28;20053;-79
2023/06/28 15:27:01;;;;;;;7.95;5.10;;;;;;;;;;6243139;28;20056;-78
2023/06/28 15:30:02;;;;;;;8.02;5.22;;;;;;;;;;6249412;28;20064;-79
2023/06/28 15:33:03;;;;;;;7.65;4.75;;;;;;;;;;6245448;28;20061;-79
2023/06/28 15:36:05;;;;;;;9.10;5.20;;;;;;;;;;6243367;28;20092;-79
2023/06/28 15:39:07;;;;;;;8.68;5.60;;;;;;;;;;6245106;28;20338;-79
2023/06/28 15:42:10;;;;;;;7.88;4.90;;;;;;;;;;6241959;28;20060;-79
2023/06/28 15:45:11;;;;;;;10.30;5.18;;;;;;;;;;6241150;28;20225;-79
2023/06/28 15:48:13;;;;;;;10.15;5.43;;;;;;;;;;6238878;28;20062;-80
2023/06/28 15:51:15;;;;;;;7.35;4.60;;;;;;;;;;6240278;28;20057;-79
2023/06/28 15:54:16;;;;;;;8.80;4.70;;;;;;;;;;6240654;28;20055;-80
2023/06/28 15:57:19;;;;;;;8.02;5.10;;;;;;;;;;6242475;28;20072;-78
2023/06/28 16:00:21;;;;;;;10.07;5.32;;;;;;;;;;6240354;28;20096;-78
2023/06/28 16:03:23;;;;;;;8.93;4.78;;;;;;;;;;6241018;28;20120;-78
2023/06/28 16:06:24;;;;;;;6.97;5.20;;;;;;;;;;6240284;28;20063;-79
2023/06/28 16:09:26;;;;;;;6.28;5.00;;;;;;;;;;6240524;28;20069;-79
2023/06/28 16:12:29;;;;;;;7.80;5.33;;;;;;;;;;6239794;28;21016;-79
2023/06/28 16:15:31;;;;;;;8.07;5.40;;;;;;;;;;6241318;28;20330;-79
2023/06/28 16:18:32;;;;;;;9.07;5.70;;;;;;;;;;6239272;28;20100;-79
2023/06/28 16:21:34;;;;;;;9.50;5.30;;;;;;;;;;6242705;28;20057;-79
2023/06/28 16:24:35;;;;;;;6.72;5.22;;;;;;;;;;6244337;28;20100;-78
2023/06/28 16:27:38;;;;;;;6.68;4.90;;;;;;;;;;6239644;28;20065;-80
2023/06/28 16:30:40;;;;;;;9.02;5.47;;;;;;;;;;6247138;28;20063;-80
2023/06/28 16:33:42;;;;;;;9.00;5.60;;;;;;;;;;6242083;28;20052;-79
2023/06/28 16:36:44;;;;;;;8.20;6.03;;;;;;;;;;6240944;28;20067;-80
2023/06/28 16:39:46;;;;;;;9.53;5.27;;;;;;;;;;6241884;28;20115;-79
2023/06/28 16:42:50;;;;;;;6.35;5.65;;;;;;;;;;6242703;28;20044;-80
2023/06/28 16:45:53;;;;;;;8.93;5.68;;;;;;;;;;6240949;28;20060;-79
2023/06/28 16:48:54;;;;;;;9.20;5.40;;;;;;;;;;6241487;28;20301;-78
2023/06/28 16:51:56;;;;;;;10.35;5.47;;;;;;;;;;6239273;28;20056;-79
2023/06/28 16:54:57;;;;;;;7.45;5.28;;;;;;;;;;6242767;28;20060;-79
2023/06/28 16:58:00;;;;;;;8.57;5.75;;;;;;;;;;6243023;28;20042;-79
2023/06/28 17:01:02;;;;;;;;;;;;;;;;;;6239707;28;20333;-79
2023/06/28 17:04:03;;;;;;;7.00;5.78;;;;;;;;;;6237590;28;20117;-78
2023/06/28 17:07:07;;;;;;;8.13;5.82;;;;;;;;;;6239293;28;20309;-79
2023/06/28 17:10:09;;;;;;;7.35;5.70;;;;;;;;;;6243002;28;20057;-79
2023/06/28 17:13:13;;;;;;;8.70;5.67;;;;;;;;;;6240494;28;20057;-79
2023/06/28 17:16:14;;;;;;;12.32;6.35;;;;;;;;;;6238908;28;20447;-79
2023/06/28 17:19:16;;;;;;;10.65;5.70;;;;;;;;;;6239124;28;20152;-79
2023/06/28 17:22:18;;;;;;;9.25;6.00;;;;;;;;;;6240496;28;20290;-77
2023/06/28 17:25:19;;;;;;;11.85;6.20;;;;;;;;;;6242023;28;20049;-77
2023/06/28 17:28:24;;;;;;;7.97;6.22;;;;;;;;;;6242269;28;20057;-77
2023/06/28 17:31:26;;;;;;;11.50;6.32;;;;;;;;;;6242772;28;20049;-73
2023/06/28 17:34:27;;;;;;;11.43;6.03;;;;;;;;;;6239113;28;20302;-73
2023/06/28 17:37:29;;;;;;;7.57;6.20;;;;;;;;;;6244834;28;20045;-80
2023/06/28 17:40:30;;;;;;;11.88;7.03;;;;;;;;;;6245717;28;20072;-78
2023/06/28 17:43:33;;;;;;;9.52;6.60;;;;;;;;;;6244446;28;20061;-77
2023/06/28 17:46:35;;;;;;;;;;;;;;;;;;6245617;28;20075;-76
2023/06/28 17:49:37;;;;;;;7.97;5.57;;;;;;;;;;6245154;28;19962;-75
2023/06/28 17:52:39;;;;;;;7.00;5.90;;;;;;;;;;6242919;28;20049;-76
2023/06/28 17:55:41;;;;;;;12.02;6.07;;;;;;;;;;6243094;28;20057;-76
2023/06/28 17:58:44;;;;;;;11.75;6.03;;;;;;;;;;6245863;28;20256;-76
2023/06/28 18:01:45;;;;;;;9.27;5.93;;;;;;;;;;6243025;28;20060;-75
2023/06/28 18:04:47;;;;;;;10.93;6.35;;;;;;;;;;6243250;28;20049;-73
2023/06/28 18:07:49;;;;;;;10.43;5.85;;;;;;;;;;6237096;28;20064;-75
2023/06/28 18:10:52;;;;;;;9.57;5.88;;;;;;;;;;6249000;28;20045;-75
2023/06/28 18:13:53;;;;;;;;;;;;;;;;;;6250546;28;20124;-71